sensor_id;sensor_type;location;lat;lon;timestamp;P1;durP1;ratioP1;P2;durP2;ratioP2
18574;SDS011;9417;16.484;102.872;2024-02-16T00:00:36;37.75;;;30.30;;
18574;SDS011;9417;16.484;102.872;2024-02-16T00:01:38;40.92;;;31.77;;
18574;SDS011;9417;16.484;102.872;2024-02-16T00:02:40;40.25;;;31.17;;
18574;SDS011;9417;16.484;102.872;2024-02-16T00:03:43;37.53;;;32.25;;
18574;SDS011;9417;16.484;102.872;2024-02-16T00:04:44;24.50;;;17.85;;
18574;SDS011;9417;16.484;102.872;2024-02-16T00:05:46;23.05;;;17.75;;
18574;SDS011;9417;16.484;102.872;2024-02-16T00:06:47;25.67;;;18.33;;
18574;SDS011;9417;16.484;102.872;2024-02-16T00:07:49;27.98;;;19.00;;
18574;SDS011;9417;16.484;102.872;2024-02-16T00:08:51;27.50;;;18.73;;
18574;SDS011;9417;16.484;102.872;2024-02-16T00:09:53;26.00;;;18.45;;
18574;SDS011;9417;16.484;102.872;2024-02-16T00:10:54;26.30;;;18.17;;
18574;SDS011;9417;16.484;102.872;2024-02-16T00:11:56;27.23;;;19.38;;
18574;SDS011;9417;16.484;102.872;2024-02-16T00:12:58;26.77;;;18.70;;
18574;SDS011;9417;16.484;102.872;2024-02-16T00:13:59;26.17;;;19.17;;
18574;SDS011;9417;16.484;102.872;2024-02-16T00:15:03;28.25;;;19.63;;
18574;SDS011;9417;16.484;102.872;2024-02-16T00:16:05;29.45;;;21.80;;
18574;SDS011;9417;16.484;102.872;2024-02-16T00:17:08;31.63;;;20.77;;
18574;SDS011;9417;16.484;102.872;2024-02-16T00:18:12;31.73;;;21.75;;
18574;SDS011;9417;16.484;102.872;2024-02-16T00:19:14;28.02;;;21.48;;
18574;SDS011;9417;16.484;102.872;2024-02-16T00:20:16;30.67;;;21.88;;
18574;SDS011;9417;16.484;102.872;2024-02-16T00:21:19;30.45;;;21.85;;
18574;SDS011;9417;16.484;102.872;2024-02-16T00:22:21;28.13;;;21.08;;
18574;SDS011;9417;16.484;102.872;2024-02-16T00:23:22;32.65;;;21.35;;
18574;SDS011;9417;16.484;102.872;2024-02-16T00:24:25;27.70;;;19.90;;
18574;SDS011;9417;16.484;102.872;2024-02-16T00:25:27;25.20;;;18.65;;
18574;SDS011;9417;16.484;102.872;2024-02-16T00:26:28;24.67;;;19.20;;
18574;SDS011;9417;16.484;102.872;2024-02-16T00:27:30;29.63;;;19.95;;
18574;SDS011;9417;16.484;102.872;2024-02-16T00:28:31;26.05;;;19.88;;
18574;SDS011;9417;16.484;102.872;2024-02-16T00:29:33;29.10;;;19.00;;
18574;SDS011;9417;16.484;102.872;2024-02-16T00:30:35;26.70;;;18.27;;
18574;SDS011;9417;16.484;102.872;2024-02-16T00:31:36;28.38;;;19.67;;
18574;SDS011;9417;16.484;102.872;2024-02-16T00:32:38;28.08;;;18.92;;
18574;SDS011;9417;16.484;102.872;2024-02-16T00:33:40;29.88;;;19.20;;
18574;SDS011;9417;16.484;102.872;2024-02-16T00:34:42;28.92;;;18.98;;
18574;SDS011;9417;16.484;102.872;2024-02-16T00:35:44;27.50;;;18.83;;
18574;SDS011;9417;16.484;102.872;2024-02-16T00:36:49;26.95;;;17.98;;
18574;SDS011;9417;16.484;102.872;2024-02-16T00:37:51;27.73;;;18.83;;
18574;SDS011;9417;16.484;102.872;2024-02-16T00:38:52;26.27;;;17.73;;
18574;SDS011;9417;16.484;102.872;2024-02-16T00:39:54;26.70;;;17.92;;
18574;SDS011;9417;16.484;102.872;2024-02-16T00:40:56;26.42;;;17.65;;
18574;SDS011;9417;16.484;102.872;2024-02-16T00:41:57;26.50;;;19.00;;
18574;SDS011;9417;16.484;102.872;2024-02-16T00:42:59;27.80;;;18.58;;
18574;SDS011;9417;16.484;102.872;2024-02-16T00:44:00;30.25;;;19.25;;
18574;SDS011;9417;16.484;102.872;2024-02-16T00:45:02;23.17;;;17.17;;
18574;SDS011;9417;16.484;102.872;2024-02-16T00:46:04;29.00;;;18.88;;
18574;SDS011;9417;16.484;102.872;2024-02-16T00:47:06;28.05;;;19.25;;
18574;SDS011;9417;16.484;102.872;2024-02-16T00:48:10;26.80;;;18.58;;
18574;SDS011;9417;16.484;102.872;2024-02-16T00:49:11;33.58;;;26.33;;
18574;SDS011;9417;16.484;102.872;2024-02-16T00:50:13;31.48;;;26.73;;
18574;SDS011;9417;16.484;102.872;2024-02-16T00:51:15;31.05;;;27.73;;
18574;SDS011;9417;16.484;102.872;2024-02-16T00:52:17;34.75;;;29.80;;
18574;SDS011;9417;16.484;102.872;2024-02-16T00:53:19;39.97;;;32.17;;
18574;SDS011;9417;16.484;102.872;2024-02-16T00:54:20;43.35;;;34.60;;
18574;SDS011;9417;16.484;102.872;2024-02-16T00:55:22;41.10;;;26.38;;
18574;SDS011;9417;16.484;102.872;2024-02-16T00:56:23;39.40;;;24.83;;
18574;SDS011;9417;16.484;102.872;2024-02-16T00:57:25;34.28;;;25.77;;
18574;SDS011;9417;16.484;102.872;2024-02-16T00:58:27;36.80;;;25.92;;
18574;SDS011;9417;16.484;102.872;2024-02-16T00:59:28;34.40;;;22.83;;
18574;SDS011;9417;16.484;102.872;2024-02-16T01:00:30;29.30;;;21.10;;
18574;SDS011;9417;16.484;102.872;2024-02-16T01:01:32;29.23;;;19.95;;
18574;SDS011;9417;16.484;102.872;2024-02-16T01:02:33;32.92;;;19.52;;
18574;SDS011;9417;16.484;102.872;2024-02-16T01:03:35;29.35;;;19.75;;
18574;SDS011;9417;16.484;102.872;2024-02-16T01:04:38;25.48;;;19.60;;
18574;SDS011;9417;16.484;102.872;2024-02-16T01:05:39;28.27;;;20.02;;
18574;SDS011;9417;16.484;102.872;2024-02-16T01:06:41;27.83;;;19.80;;
18574;SDS011;9417;16.484;102.872;2024-02-16T01:07:43;28.08;;;19.38;;
18574;SDS011;9417;16.484;102.872;2024-02-16T01:08:45;27.85;;;19.27;;
18574;SDS011;9417;16.484;102.872;2024-02-16T01:09:47;28.23;;;18.75;;
18574;SDS011;9417;16.484;102.872;2024-02-16T01:10:49;28.00;;;21.55;;
18574;SDS011;9417;16.484;102.872;2024-02-16T01:11:51;27.05;;;23.20;;
18574;SDS011;9417;16.484;102.872;2024-02-16T01:12:52;33.35;;;24.98;;
18574;SDS011;9417;16.484;102.872;2024-02-16T01:13:56;38.25;;;34.35;;
18574;SDS011;9417;16.484;102.872;2024-02-16T01:14:57;44.80;;;37.08;;
18574;SDS011;9417;16.484;102.872;2024-02-16T01:16:00;29.65;;;26.48;;
18574;SDS011;9417;16.484;102.872;2024-02-16T01:17:03;32.20;;;24.23;;
18574;SDS011;9417;16.484;102.872;2024-02-16T01:18:04;36.40;;;30.50;;
18574;SDS011;9417;16.484;102.872;2024-02-16T01:19:06;32.80;;;24.38;;
18574;SDS011;9417;16.484;102.872;2024-02-16T01:20:07;28.30;;;18.65;;
18574;SDS011;9417;16.484;102.872;2024-02-16T01:21:12;26.52;;;18.13;;
18574;SDS011;9417;16.484;102.872;2024-02-16T01:22:14;26.25;;;17.92;;
18574;SDS011;9417;16.484;102.872;2024-02-16T01:23:16;24.77;;;18.40;;
18574;SDS011;9417;16.484;102.872;2024-02-16T01:24:17;24.48;;;17.98;;
18574;SDS011;9417;16.484;102.872;2024-02-16T01:25:21;27.98;;;17.13;;
18574;SDS011;9417;16.484;102.872;2024-02-16T01:26:22;26.02;;;17.45;;
18574;SDS011;9417;16.484;102.872;2024-02-16T01:27:25;36.67;;;30.35;;
18574;SDS011;9417;16.484;102.872;2024-02-16T01:28:27;35.40;;;31.60;;
18574;SDS011;9417;16.484;102.872;2024-02-16T01:29:29;37.67;;;32.38;;
18574;SDS011;9417;16.484;102.872;2024-02-16T01:30:32;37.85;;;33.78;;
18574;SDS011;9417;16.484;102.872;2024-02-16T01:31:34;35.70;;;30.98;;
18574;SDS011;9417;16.484;102.872;2024-02-16T01:32:37;36.92;;;32.58;;
18574;SDS011;9417;16.484;102.872;2024-02-16T01:33:38;37.80;;;28.15;;
18574;SDS011;9417;16.484;102.872;2024-02-16T01:34:40;34.72;;;29.77;;
18574;SDS011;9417;16.484;102.872;2024-02-16T01:35:44;37.10;;;28.65;;
18574;SDS011;9417;16.484;102.872;2024-02-16T01:36:46;38.92;;;29.75;;
18574;SDS011;9417;16.484;102.872;2024-02-16T01:37:48;36.42;;;32.25;;
18574;SDS011;9417;16.484;102.872;2024-02-16T01:38:49;31.30;;;27.95;;
18574;SDS011;9417;16.484;102.872;2024-02-16T01:39:51;25.17;;;18.30;;
18574;SDS011;9417;16.484;102.872;2024-02-16T01:40:53;28.83;;;19.23;;
18574;SDS011;9417;16.484;102.872;2024-02-16T01:41:54;30.48;;;18.92;;
18574;SDS011;9417;16.484;102.872;2024-02-16T01:42:56;28.42;;;19.40;;
18574;SDS011;9417;16.484;102.872;2024-02-16T01:43:58;24.52;;;18.33;;
18574;SDS011;9417;16.484;102.872;2024-02-16T01:44:59;26.52;;;19.63;;
18574;SDS011;9417;16.484;102.872;2024-02-16T01:46:01;27.95;;;19.85;;
18574;SDS011;9417;16.484;102.872;2024-02-16T01:47:03;26.98;;;18.85;;
18574;SDS011;9417;16.484;102.872;2024-02-16T01:48:05;27.65;;;18.83;;
18574;SDS011;9417;16.484;102.872;2024-02-16T01:49:07;26.85;;;20.45;;
18574;SDS011;9417;16.484;102.872;2024-02-16T01:50:09;28.15;;;18.98;;
18574;SDS011;9417;16.484;102.872;2024-02-16T01:51:11;29.92;;;18.00;;
18574;SDS011;9417;16.484;102.872;2024-02-16T01:52:14;25.98;;;19.63;;
18574;SDS011;9417;16.484;102.872;2024-02-16T01:53:15;26.63;;;17.92;;
18574;SDS011;9417;16.484;102.872;2024-02-16T01:54:21;27.67;;;18.02;;
18574;SDS011;9417;16.484;102.872;2024-02-16T01:55:23;27.85;;;18.55;;
18574;SDS011;9417;16.484;102.872;2024-02-16T01:56:24;25.90;;;18.55;;
18574;SDS011;9417;16.484;102.872;2024-02-16T01:57:27;26.60;;;17.48;;
18574;SDS011;9417;16.484;102.872;2024-02-16T01:58:28;25.40;;;18.42;;
18574;SDS011;9417;16.484;102.872;2024-02-16T01:59:30;28.35;;;19.13;;
18574;SDS011;9417;16.484;102.872;2024-02-16T02:00:33;28.35;;;20.15;;
18574;SDS011;9417;16.484;102.872;2024-02-16T02:01:35;25.67;;;20.85;;
18574;SDS011;9417;16.484;102.872;2024-02-16T02:02:37;33.90;;;30.58;;
18574;SDS011;9417;16.484;102.872;2024-02-16T02:03:40;35.10;;;31.67;;
18574;SDS011;9417;16.484;102.872;2024-02-16T02:04:42;30.58;;;27.30;;
18574;SDS011;9417;16.484;102.872;2024-02-16T02:05:46;26.77;;;19.42;;
18574;SDS011;9417;16.484;102.872;2024-02-16T02:06:48;24.48;;;19.50;;
18574;SDS011;9417;16.484;102.872;2024-02-16T02:07:50;29.95;;;20.45;;
18574;SDS011;9417;16.484;102.872;2024-02-16T02:08:52;24.88;;;18.63;;
18574;SDS011;9417;16.484;102.872;2024-02-16T02:09:54;27.48;;;20.02;;
18574;SDS011;9417;16.484;102.872;2024-02-16T02:10:56;24.33;;;19.00;;
18574;SDS011;9417;16.484;102.872;2024-02-16T02:11:57;27.00;;;19.90;;
18574;SDS011;9417;16.484;102.872;2024-02-16T02:12:59;27.83;;;19.35;;
18574;SDS011;9417;16.484;102.872;2024-02-16T02:14:01;28.02;;;20.33;;
18574;SDS011;9417;16.484;102.872;2024-02-16T02:15:02;27.73;;;19.95;;
18574;SDS011;9417;16.484;102.872;2024-02-16T02:16:05;26.63;;;19.88;;
18574;SDS011;9417;16.484;102.872;2024-02-16T02:17:07;27.90;;;20.63;;
18574;SDS011;9417;16.484;102.872;2024-02-16T02:18:09;26.50;;;19.80;;
18574;SDS011;9417;16.484;102.872;2024-02-16T02:19:11;26.08;;;19.10;;
18574;SDS011;9417;16.484;102.872;2024-02-16T02:20:13;31.10;;;20.38;;
18574;SDS011;9417;16.484;102.872;2024-02-16T02:21:15;29.67;;;20.92;;
18574;SDS011;9417;16.484;102.872;2024-02-16T02:22:18;30.42;;;21.13;;
18574;SDS011;9417;16.484;102.872;2024-02-16T02:23:20;25.95;;;19.58;;
18574;SDS011;9417;16.484;102.872;2024-02-16T02:24:22;26.70;;;20.42;;
18574;SDS011;9417;16.484;102.872;2024-02-16T02:25:23;24.85;;;19.52;;
18574;SDS011;9417;16.484;102.872;2024-02-16T02:26:27;28.67;;;20.77;;
18574;SDS011;9417;16.484;102.872;2024-02-16T02:27:28;29.42;;;19.85;;
18574;SDS011;9417;16.484;102.872;2024-02-16T02:28:30;22.55;;;19.00;;
18574;SDS011;9417;16.484;102.872;2024-02-16T02:29:32;26.52;;;19.55;;
18574;SDS011;9417;16.484;102.872;2024-02-16T02:30:36;25.08;;;19.92;;
18574;SDS011;9417;16.484;102.872;2024-02-16T02:31:38;32.85;;;21.17;;
18574;SDS011;9417;16.484;102.872;2024-02-16T02:32:40;27.50;;;20.45;;
18574;SDS011;9417;16.484;102.872;2024-02-16T02:33:42;26.95;;;20.80;;
18574;SDS011;9417;16.484;102.872;2024-02-16T02:34:44;27.08;;;19.80;;
18574;SDS011;9417;16.484;102.872;2024-02-16T02:35:46;32.53;;;20.20;;
18574;SDS011;9417;16.484;102.872;2024-02-16T02:36:48;27.85;;;20.05;;
18574;SDS011;9417;16.484;102.872;2024-02-16T02:37:49;26.65;;;19.98;;
18574;SDS011;9417;16.484;102.872;2024-02-16T02:38:51;28.80;;;21.02;;
18574;SDS011;9417;16.484;102.872;2024-02-16T02:39:52;30.25;;;21.63;;
18574;SDS011;9417;16.484;102.872;2024-02-16T02:40:54;28.85;;;21.30;;
18574;SDS011;9417;16.484;102.872;2024-02-16T02:41:57;27.85;;;20.92;;
18574;SDS011;9417;16.484;102.872;2024-02-16T02:42:59;25.05;;;19.67;;
18574;SDS011;9417;16.484;102.872;2024-02-16T02:44:00;31.38;;;21.48;;
18574;SDS011;9417;16.484;102.872;2024-02-16T02:45:02;25.00;;;19.90;;
18574;SDS011;9417;16.484;102.872;2024-02-16T02:46:04;27.80;;;20.85;;
18574;SDS011;9417;16.484;102.872;2024-02-16T02:47:06;27.73;;;20.08;;
18574;SDS011;9417;16.484;102.872;2024-02-16T02:48:08;27.65;;;20.30;;
18574;SDS011;9417;16.484;102.872;2024-02-16T02:49:10;25.92;;;20.73;;
18574;SDS011;9417;16.484;102.872;2024-02-16T02:50:11;25.98;;;19.88;;
18574;SDS011;9417;16.484;102.872;2024-02-16T02:51:13;25.00;;;20.05;;
18574;SDS011;9417;16.484;102.872;2024-02-16T02:52:15;26.15;;;20.48;;
18574;SDS011;9417;16.484;102.872;2024-02-16T02:53:17;28.27;;;21.02;;
18574;SDS011;9417;16.484;102.872;2024-02-16T02:54:19;28.55;;;20.42;;
18574;SDS011;9417;16.484;102.872;2024-02-16T02:55:20;28.02;;;20.48;;
18574;SDS011;9417;16.484;102.872;2024-02-16T02:56:22;28.17;;;21.38;;
18574;SDS011;9417;16.484;102.872;2024-02-16T02:57:24;26.15;;;19.77;;
18574;SDS011;9417;16.484;102.872;2024-02-16T02:58:25;29.02;;;20.95;;
18574;SDS011;9417;16.484;102.872;2024-02-16T02:59:27;28.77;;;21.25;;
18574;SDS011;9417;16.484;102.872;2024-02-16T03:00:28;26.45;;;20.50;;
18574;SDS011;9417;16.484;102.872;2024-02-16T03:01:30;26.23;;;20.60;;
18574;SDS011;9417;16.484;102.872;2024-02-16T03:02:32;25.33;;;19.60;;
18574;SDS011;9417;16.484;102.872;2024-02-16T03:03:34;30.73;;;20.35;;
18574;SDS011;9417;16.484;102.872;2024-02-16T03:04:35;32.10;;;21.17;;
18574;SDS011;9417;16.484;102.872;2024-02-16T03:05:37;30.08;;;21.45;;
18574;SDS011;9417;16.484;102.872;2024-02-16T03:06:40;28.90;;;20.50;;
18574;SDS011;9417;16.484;102.872;2024-02-16T03:07:42;23.65;;;19.60;;
18574;SDS011;9417;16.484;102.872;2024-02-16T03:08:44;27.65;;;21.25;;
18574;SDS011;9417;16.484;102.872;2024-02-16T03:09:45;31.45;;;21.02;;
18574;SDS011;9417;16.484;102.872;2024-02-16T03:10:48;26.13;;;20.20;;
18574;SDS011;9417;16.484;102.872;2024-02-16T03:11:50;27.95;;;19.83;;
18574;SDS011;9417;16.484;102.872;2024-02-16T03:12:52;25.05;;;18.90;;
18574;SDS011;9417;16.484;102.872;2024-02-16T03:13:54;26.60;;;19.77;;
18574;SDS011;9417;16.484;102.872;2024-02-16T03:14:56;29.23;;;21.42;;
18574;SDS011;9417;16.484;102.872;2024-02-16T03:15:58;24.75;;;20.20;;
18574;SDS011;9417;16.484;102.872;2024-02-16T03:16:59;30.77;;;22.40;;
18574;SDS011;9417;16.484;102.872;2024-02-16T03:18:01;34.92;;;22.10;;
18574;SDS011;9417;16.484;102.872;2024-02-16T03:19:05;27.50;;;21.05;;
18574;SDS011;9417;16.484;102.872;2024-02-16T03:20:10;26.80;;;20.83;;
18574;SDS011;9417;16.484;102.872;2024-02-16T03:21:15;25.73;;;20.73;;
18574;SDS011;9417;16.484;102.872;2024-02-16T03:22:17;26.27;;;20.63;;
18574;SDS011;9417;16.484;102.872;2024-02-16T03:23:18;35.47;;;19.90;;
18574;SDS011;9417;16.484;102.872;2024-02-16T03:24:20;28.55;;;19.25;;
18574;SDS011;9417;16.484;102.872;2024-02-16T03:25:22;27.30;;;20.10;;
18574;SDS011;9417;16.484;102.872;2024-02-16T03:26:24;27.30;;;19.48;;
18574;SDS011;9417;16.484;102.872;2024-02-16T03:27:26;25.00;;;19.55;;
18574;SDS011;9417;16.484;102.872;2024-02-16T03:28:28;24.60;;;19.05;;
18574;SDS011;9417;16.484;102.872;2024-02-16T03:29:29;27.80;;;18.52;;
18574;SDS011;9417;16.484;102.872;2024-02-16T03:30:31;27.73;;;19.15;;
18574;SDS011;9417;16.484;102.872;2024-02-16T03:31:34;28.83;;;19.17;;
18574;SDS011;9417;16.484;102.872;2024-02-16T03:32:36;28.20;;;19.83;;
18574;SDS011;9417;16.484;102.872;2024-02-16T03:33:38;27.50;;;19.60;;
18574;SDS011;9417;16.484;102.872;2024-02-16T03:34:39;26.92;;;20.40;;
18574;SDS011;9417;16.484;102.872;2024-02-16T03:35:41;24.60;;;18.15;;
18574;SDS011;9417;16.484;102.872;2024-02-16T03:36:43;27.70;;;18.13;;
18574;SDS011;9417;16.484;102.872;2024-02-16T03:37:44;22.15;;;16.30;;
18574;SDS011;9417;16.484;102.872;2024-02-16T03:38:47;27.73;;;17.95;;
18574;SDS011;9417;16.484;102.872;2024-02-16T03:39:52;26.23;;;19.20;;
18574;SDS011;9417;16.484;102.872;2024-02-16T03:40:54;25.13;;;19.10;;
18574;SDS011;9417;16.484;102.872;2024-02-16T03:41:56;26.42;;;20.15;;
18574;SDS011;9417;16.484;102.872;2024-02-16T03:42:58;25.85;;;18.75;;
18574;SDS011;9417;16.484;102.872;2024-02-16T03:44:00;26.88;;;19.30;;
18574;SDS011;9417;16.484;102.872;2024-02-16T03:45:04;24.23;;;17.00;;
18574;SDS011;9417;16.484;102.872;2024-02-16T03:46:07;22.42;;;16.95;;
18574;SDS011;9417;16.484;102.872;2024-02-16T03:47:09;33.03;;;25.00;;
18574;SDS011;9417;16.484;102.872;2024-02-16T03:48:10;40.08;;;30.38;;
18574;SDS011;9417;16.484;102.872;2024-02-16T03:49:12;47.67;;;43.22;;
18574;SDS011;9417;16.484;102.872;2024-02-16T03:50:13;42.90;;;38.70;;
18574;SDS011;9417;16.484;102.872;2024-02-16T03:51:16;23.13;;;16.80;;
18574;SDS011;9417;16.484;102.872;2024-02-16T03:52:17;28.70;;;17.17;;
18574;SDS011;9417;16.484;102.872;2024-02-16T03:53:19;23.48;;;17.83;;
18574;SDS011;9417;16.484;102.872;2024-02-16T03:54:21;23.05;;;17.17;;
18574;SDS011;9417;16.484;102.872;2024-02-16T03:55:23;21.33;;;16.50;;
18574;SDS011;9417;16.484;102.872;2024-02-16T03:56:25;27.40;;;16.98;;
18574;SDS011;9417;16.484;102.872;2024-02-16T03:57:26;22.98;;;15.70;;
18574;SDS011;9417;16.484;102.872;2024-02-16T03:58:28;25.00;;;16.02;;
18574;SDS011;9417;16.484;102.872;2024-02-16T03:59:32;20.02;;;15.82;;
18574;SDS011;9417;16.484;102.872;2024-02-16T04:00:33;21.13;;;15.70;;
18574;SDS011;9417;16.484;102.872;2024-02-16T04:01:35;21.30;;;15.90;;
18574;SDS011;9417;16.484;102.872;2024-02-16T04:02:36;22.98;;;18.10;;
18574;SDS011;9417;16.484;102.872;2024-02-16T04:03:38;23.95;;;18.33;;
18574;SDS011;9417;16.484;102.872;2024-02-16T04:04:40;22.85;;;17.50;;
18574;SDS011;9417;16.484;102.872;2024-02-16T04:05:42;21.40;;;16.15;;
18574;SDS011;9417;16.484;102.872;2024-02-16T04:06:43;24.23;;;15.63;;
18574;SDS011;9417;16.484;102.872;2024-02-16T04:07:45;22.10;;;16.08;;
18574;SDS011;9417;16.484;102.872;2024-02-16T04:08:47;25.60;;;16.40;;
18574;SDS011;9417;16.484;102.872;2024-02-16T04:09:49;22.25;;;16.38;;
18574;SDS011;9417;16.484;102.872;2024-02-16T04:10:51;23.38;;;16.23;;
18574;SDS011;9417;16.484;102.872;2024-02-16T04:11:53;21.85;;;16.80;;
18574;SDS011;9417;16.484;102.872;2024-02-16T04:12:55;22.60;;;17.08;;
18574;SDS011;9417;16.484;102.872;2024-02-16T04:13:56;24.10;;;16.52;;
18574;SDS011;9417;16.484;102.872;2024-02-16T04:14:58;22.85;;;16.27;;
18574;SDS011;9417;16.484;102.872;2024-02-16T04:16:00;22.50;;;16.48;;
18574;SDS011;9417;16.484;102.872;2024-02-16T04:17:01;19.63;;;15.82;;
18574;SDS011;9417;16.484;102.872;2024-02-16T04:18:04;22.80;;;16.23;;
18574;SDS011;9417;16.484;102.872;2024-02-16T04:19:07;25.30;;;17.08;;
18574;SDS011;9417;16.484;102.872;2024-02-16T04:20:08;19.65;;;15.45;;
18574;SDS011;9417;16.484;102.872;2024-02-16T04:21:11;23.00;;;16.77;;
18574;SDS011;9417;16.484;102.872;2024-02-16T04:22:13;21.10;;;16.13;;
18574;SDS011;9417;16.484;102.872;2024-02-16T04:23:14;22.50;;;17.08;;
18574;SDS011;9417;16.484;102.872;2024-02-16T04:24:16;24.92;;;16.80;;
18574;SDS011;9417;16.484;102.872;2024-02-16T04:25:18;23.27;;;17.15;;
18574;SDS011;9417;16.484;102.872;2024-02-16T04:26:20;21.40;;;16.48;;
18574;SDS011;9417;16.484;102.872;2024-02-16T04:27:21;23.02;;;16.45;;
18574;SDS011;9417;16.484;102.872;2024-02-16T04:28:23;20.48;;;15.95;;
18574;SDS011;9417;16.484;102.872;2024-02-16T04:29:24;20.13;;;16.42;;
18574;SDS011;9417;16.484;102.872;2024-02-16T04:30:26;23.40;;;16.63;;
18574;SDS011;9417;16.484;102.872;2024-02-16T04:31:27;20.38;;;16.67;;
18574;SDS011;9417;16.484;102.872;2024-02-16T04:32:29;24.13;;;17.63;;
18574;SDS011;9417;16.484;102.872;2024-02-16T04:33:31;27.55;;;17.70;;
18574;SDS011;9417;16.484;102.872;2024-02-16T04:34:33;23.13;;;17.33;;
18574;SDS011;9417;16.484;102.872;2024-02-16T04:35:35;25.83;;;16.95;;
18574;SDS011;9417;16.484;102.872;2024-02-16T04:36:36;22.75;;;16.52;;
18574;SDS011;9417;16.484;102.872;2024-02-16T04:37:38;23.48;;;16.88;;
18574;SDS011;9417;16.484;102.872;2024-02-16T04:38:40;26.00;;;16.48;;
18574;SDS011;9417;16.484;102.872;2024-02-16T04:39:41;24.90;;;17.20;;
18574;SDS011;9417;16.484;102.872;2024-02-16T04:40:43;25.40;;;17.10;;
18574;SDS011;9417;16.484;102.872;2024-02-16T04:41:45;20.55;;;17.25;;
18574;SDS011;9417;16.484;102.872;2024-02-16T04:42:47;19.88;;;16.23;;
18574;SDS011;9417;16.484;102.872;2024-02-16T04:43:49;25.90;;;16.75;;
18574;SDS011;9417;16.484;102.872;2024-02-16T04:44:50;22.05;;;17.23;;
18574;SDS011;9417;16.484;102.872;2024-02-16T04:45:52;23.52;;;17.48;;
18574;SDS011;9417;16.484;102.872;2024-02-16T04:46:54;20.90;;;16.17;;
18574;SDS011;9417;16.484;102.872;2024-02-16T04:47:56;27.67;;;16.95;;
18574;SDS011;9417;16.484;102.872;2024-02-16T04:48:57;20.88;;;16.15;;
18574;SDS011;9417;16.484;102.872;2024-02-16T04:49:59;26.63;;;16.48;;
18574;SDS011;9417;16.484;102.872;2024-02-16T04:51:01;21.58;;;15.35;;
18574;SDS011;9417;16.484;102.872;2024-02-16T04:52:03;21.05;;;16.05;;
18574;SDS011;9417;16.484;102.872;2024-02-16T04:53:05;21.27;;;16.23;;
18574;SDS011;9417;16.484;102.872;2024-02-16T04:54:06;21.48;;;16.38;;
18574;SDS011;9417;16.484;102.872;2024-02-16T04:55:08;24.23;;;16.10;;
18574;SDS011;9417;16.484;102.872;2024-02-16T04:56:09;22.77;;;16.15;;
18574;SDS011;9417;16.484;102.872;2024-02-16T04:57:11;23.83;;;16.63;;
18574;SDS011;9417;16.484;102.872;2024-02-16T04:58:12;20.67;;;16.45;;
18574;SDS011;9417;16.484;102.872;2024-02-16T04:59:14;26.60;;;17.20;;
18574;SDS011;9417;16.484;102.872;2024-02-16T05:00:17;21.70;;;15.93;;
18574;SDS011;9417;16.484;102.872;2024-02-16T05:01:18;24.10;;;16.42;;
18574;SDS011;9417;16.484;102.872;2024-02-16T05:02:20;20.10;;;15.68;;
18574;SDS011;9417;16.484;102.872;2024-02-16T05:03:22;21.83;;;16.73;;
18574;SDS011;9417;16.484;102.872;2024-02-16T05:04:24;21.13;;;17.58;;
18574;SDS011;9417;16.484;102.872;2024-02-16T05:05:26;20.52;;;17.20;;
18574;SDS011;9417;16.484;102.872;2024-02-16T05:06:27;18.83;;;16.20;;
18574;SDS011;9417;16.484;102.872;2024-02-16T05:07:29;22.88;;;15.88;;
18574;SDS011;9417;16.484;102.872;2024-02-16T05:08:31;25.30;;;16.40;;
18574;SDS011;9417;16.484;102.872;2024-02-16T05:09:33;19.38;;;16.17;;
18574;SDS011;9417;16.484;102.872;2024-02-16T05:10:35;22.05;;;16.60;;
18574;SDS011;9417;16.484;102.872;2024-02-16T05:11:36;20.58;;;16.50;;
18574;SDS011;9417;16.484;102.872;2024-02-16T05:12:38;20.42;;;16.00;;
18574;SDS011;9417;16.484;102.872;2024-02-16T05:13:42;23.63;;;17.05;;
18574;SDS011;9417;16.484;102.872;2024-02-16T05:14:47;20.15;;;17.13;;
18574;SDS011;9417;16.484;102.872;2024-02-16T05:15:51;25.33;;;16.67;;
18574;SDS011;9417;16.484;102.872;2024-02-16T05:16:55;20.35;;;15.20;;
18574;SDS011;9417;16.484;102.872;2024-02-16T05:17:56;20.77;;;16.17;;
18574;SDS011;9417;16.484;102.872;2024-02-16T05:18:58;22.70;;;15.52;;
18574;SDS011;9417;16.484;102.872;2024-02-16T05:20:00;17.80;;;15.57;;
18574;SDS011;9417;16.484;102.872;2024-02-16T05:21:02;17.50;;;14.93;;
18574;SDS011;9417;16.484;102.872;2024-02-16T05:22:03;21.60;;;15.00;;
18574;SDS011;9417;16.484;102.872;2024-02-16T05:23:05;31.55;;;16.30;;
18574;SDS011;9417;16.484;102.872;2024-02-16T05:24:06;22.48;;;16.23;;
18574;SDS011;9417;16.484;102.872;2024-02-16T05:25:09;21.08;;;16.58;;
18574;SDS011;9417;16.484;102.872;2024-02-16T05:26:11;20.73;;;16.23;;
18574;SDS011;9417;16.484;102.872;2024-02-16T05:27:12;19.92;;;16.08;;
18574;SDS011;9417;16.484;102.872;2024-02-16T05:28:14;19.88;;;16.55;;
18574;SDS011;9417;16.484;102.872;2024-02-16T05:29:16;21.58;;;16.08;;
18574;SDS011;9417;16.484;102.872;2024-02-16T05:30:17;23.35;;;16.85;;
18574;SDS011;9417;16.484;102.872;2024-02-16T05:31:19;22.83;;;16.45;;
18574;SDS011;9417;16.484;102.872;2024-02-16T05:32:21;19.02;;;16.05;;
18574;SDS011;9417;16.484;102.872;2024-02-16T05:33:23;19.38;;;16.00;;
18574;SDS011;9417;16.484;102.872;2024-02-16T05:34:24;18.42;;;15.88;;
18574;SDS011;9417;16.484;102.872;2024-02-16T05:35:26;19.60;;;15.45;;
18574;SDS011;9417;16.484;102.872;2024-02-16T05:36:29;21.27;;;16.00;;
18574;SDS011;9417;16.484;102.872;2024-02-16T05:37:35;21.38;;;15.90;;
18574;SDS011;9417;16.484;102.872;2024-02-16T05:38:40;22.15;;;16.33;;
18574;SDS011;9417;16.484;102.872;2024-02-16T05:39:42;18.92;;;15.43;;
18574;SDS011;9417;16.484;102.872;2024-02-16T05:41:08;20.77;;;15.25;;
18574;SDS011;9417;16.484;102.872;2024-02-16T05:42:09;20.38;;;15.43;;
18574;SDS011;9417;16.484;102.872;2024-02-16T05:43:11;19.50;;;15.93;;
18574;SDS011;9417;16.484;102.872;2024-02-16T05:44:13;17.10;;;15.07;;
18574;SDS011;9417;16.484;102.872;2024-02-16T05:45:15;19.88;;;15.55;;
18574;SDS011;9417;16.484;102.872;2024-02-16T05:46:16;18.85;;;14.93;;
18574;SDS011;9417;16.484;102.872;2024-02-16T05:47:18;22.42;;;15.68;;
18574;SDS011;9417;16.484;102.872;2024-02-16T05:48:20;20.05;;;15.80;;
18574;SDS011;9417;16.484;102.872;2024-02-16T05:49:22;21.90;;;16.00;;
18574;SDS011;9417;16.484;102.872;2024-02-16T05:50:24;17.73;;;15.63;;
18574;SDS011;9417;16.484;102.872;2024-02-16T05:51:26;20.75;;;15.38;;
18574;SDS011;9417;16.484;102.872;2024-02-16T05:52:28;22.80;;;16.70;;
18574;SDS011;9417;16.484;102.872;2024-02-16T05:53:31;23.88;;;16.13;;
18574;SDS011;9417;16.484;102.872;2024-02-16T05:54:33;20.23;;;15.90;;
18574;SDS011;9417;16.484;102.872;2024-02-16T05:55:35;17.88;;;14.45;;
18574;SDS011;9417;16.484;102.872;2024-02-16T05:56:37;21.98;;;16.73;;
18574;SDS011;9417;16.484;102.872;2024-02-16T05:57:39;16.73;;;14.48;;